createdAt,value
2018-10-06T00:02:20.962Z,99014.81
2018-10-06T00:04:52.382Z,99010.16
2018-10-06T00:07:23.059Z,99001.37
2018-10-06T00:09:53.684Z,99004.80
2018-10-06T00:12:24.331Z,99010.53
2018-10-06T00:14:54.860Z,99006.02
2018-10-06T00:17:25.475Z,99003.46
2018-10-06T00:19:57.009Z,98993.84
2018-10-06T00:22:28.324Z,98996.98
2018-10-06T00:24:58.926Z,98993.67
2018-10-06T00:27:29.812Z,98996.14
2018-10-06T00:30:00.288Z,99001.15
2018-10-06T00:32:30.884Z,98994.89
2018-10-06T00:35:01.463Z,98994.84
2018-10-06T00:37:31.990Z,98998.28
2018-10-06T00:40:02.516Z,98997.13
2018-10-06T00:42:33.019Z,98990.33
2018-10-06T00:45:03.693Z,98990.95
2018-10-06T00:47:35.250Z,98993.09
2018-10-06T00:50:06.006Z,98991.54
2018-10-06T00:52:36.652Z,98990.50
2018-10-06T00:55:07.298Z,98988.05
2018-10-06T00:57:37.861Z,98988.67
2018-10-06T01:00:08.502Z,98984.69
2018-10-06T01:02:39.053Z,98986.61
2018-10-06T01:05:09.654Z,98987.95
2018-10-06T01:07:40.315Z,98982.09
2018-10-06T01:10:10.959Z,98985.98
2018-10-06T01:12:41.544Z,98982.98
2018-10-06T01:15:12.089Z,98985.20
2018-10-06T01:17:43.519Z,98983.24
2018-10-06T01:20:14.098Z,98979.19
2018-10-06T01:22:44.720Z,98982.23
2018-10-06T01:25:16.059Z,98978.52
2018-10-06T01:27:56.763Z,98982.41
2018-10-06T01:30:27.302Z,98985.31
2018-10-06T01:32:57.823Z,98976.23
2018-10-06T01:35:28.297Z,98977.45
2018-10-06T01:37:58.901Z,98971.11
2018-10-06T01:40:29.483Z,98976.06
2018-10-06T01:43:00.494Z,98973.78
2018-10-06T01:45:31.648Z,98969.98
2018-10-06T01:48:02.251Z,98966.40
2018-10-06T01:50:33.340Z,98968.23
2018-10-06T01:53:03.890Z,98971.95
2018-10-06T01:55:34.379Z,98959.30
2018-10-06T01:58:04.857Z,98969.12
2018-10-06T02:00:35.426Z,98965.77
2018-10-06T02:03:06.053Z,98965.84
2018-10-06T02:05:36.495Z,98969.77
2018-10-06T02:08:08.293Z,98969.72
2018-10-06T02:10:38.803Z,98976.64
2018-10-06T02:13:09.861Z,98966.49
2018-10-06T02:15:40.477Z,98967.42
2018-10-06T02:18:11.043Z,98967.88
2018-10-06T02:20:41.551Z,98964.44
2018-10-06T02:23:12.041Z,98964.25
2018-10-06T02:25:42.573Z,98963.77
2018-10-06T02:28:13.231Z,98966.58
2018-10-06T02:30:43.738Z,98959.04
2018-10-06T02:33:14.262Z,98964.05
2018-10-06T02:35:44.760Z,98966.11
2018-10-06T02:38:15.349Z,98963.92
2018-10-06T02:40:46.052Z,98965.83
2018-10-06T02:43:17.459Z,98961.23
2018-10-06T02:45:49.716Z,98962.47
2018-10-06T02:48:20.448Z,98962.08
2018-10-06T02:50:51.654Z,98961.23
2018-10-06T02:53:22.323Z,98966.58
2018-10-06T02:55:52.880Z,98966.31
2018-10-06T02:58:23.494Z,98968.67
2018-10-06T03:00:55.661Z,98958.04
2018-10-06T03:03:26.793Z,98956.14
2018-10-06T03:05:57.298Z,98949.56
2018-10-06T03:08:29.730Z,98949.46
2018-10-06T03:11:00.286Z,98951.05
2018-10-06T03:13:30.878Z,98949.63
2018-10-06T03:16:01.498Z,98947.40
2018-10-06T03:18:32.070Z,98942.67
2018-10-06T03:21:02.564Z,98945.16
2018-10-06T03:23:33.128Z,98949.64
2018-10-06T03:26:06.346Z,98951.70
2018-10-06T03:28:36.967Z,98947.66
2018-10-06T03:31:07.421Z,98950.94
2018-10-06T03:33:37.928Z,98950.62
2018-10-06T03:36:08.978Z,98952.03
2018-10-06T03:38:40.564Z,98948.84
2018-10-06T03:41:11.119Z,98950.59
2018-10-06T03:43:41.715Z,98955.31
2018-10-06T03:46:13.358Z,98951.80
2018-10-06T03:48:44.842Z,98950.38
2018-10-06T03:51:15.326Z,98956.60
2018-10-06T03:53:45.904Z,98951.83
2018-10-06T03:56:16.394Z,98953.36
2018-10-06T03:58:47.062Z,98945.80
2018-10-06T04:01:17.636Z,98949.95
2018-10-06T04:03:48.224Z,98946.65
2018-10-06T04:06:19.482Z,98947.13
2018-10-06T04:08:50.265Z,98943.71
2018-10-06T04:11:20.839Z,98948.31
2018-10-06T04:13:51.503Z,98947.80
2018-10-06T04:16:22.133Z,98946.63
2018-10-06T04:18:52.595Z,98949.03
2018-10-06T04:21:23.281Z,98948.11
2018-10-06T04:23:53.707Z,98940.10
2018-10-06T04:26:27.363Z,98941.39
2018-10-06T04:28:58.190Z,98938.92
2018-10-06T04:31:29.643Z,98942.77
2018-10-06T04:34:00.209Z,98945.09
2018-10-06T04:36:30.720Z,98942.77
2018-10-06T04:39:01.511Z,98946.16
2018-10-06T04:41:32.112Z,98943.80
2018-10-06T04:44:02.682Z,98940.55
2018-10-06T04:46:34.009Z,98945.52
2018-10-06T04:49:04.996Z,98938.69
2018-10-06T04:51:35.626Z,98942.61
2018-10-06T04:54:06.240Z,98941.59
2018-10-06T04:56:38.044Z,98938.37
2018-10-06T04:59:09.187Z,98939.06
2018-10-06T05:03:44.319Z,98937.45
2018-10-06T05:06:14.846Z,98939.12
2018-10-06T05:08:46.240Z,98941.75
2018-10-06T05:11:16.760Z,98943.89
2018-10-06T05:13:47.300Z,98952.59
2018-10-06T05:16:17.953Z,98950.13
2018-10-06T05:18:48.480Z,98946.42
2018-10-06T05:21:19.280Z,98946.75
2018-10-06T05:23:49.787Z,98952.28
2018-10-06T05:26:20.274Z,98948.06
2018-10-06T05:28:50.812Z,98945.62
2018-10-06T05:31:21.230Z,98955.48
2018-10-06T05:33:51.784Z,98949.44
2018-10-06T05:36:33.612Z,98953.17
2018-10-06T05:39:05.093Z,98946.80
2018-10-06T05:41:35.718Z,98945.41
2018-10-06T05:44:06.299Z,98949.36
2018-10-06T05:46:42.928Z,98956.78
2018-10-06T05:49:13.521Z,98954.42
2018-10-06T05:51:44.138Z,98952.20
2018-10-06T05:54:15.579Z,98958.53
2018-10-06T05:56:46.217Z,98959.28
2018-10-06T05:59:16.683Z,98956.61
2018-10-06T06:01:47.360Z,98959.05
2018-10-06T06:04:18.407Z,98963.91
2018-10-06T06:06:48.921Z,98953.38
2018-10-06T06:09:19.489Z,98964.28
2018-10-06T06:11:49.981Z,98960.23
2018-10-06T06:14:20.493Z,98960.98
2018-10-06T06:16:50.928Z,98962.73
2018-10-06T06:19:21.434Z,98959.99
2018-10-06T06:21:52.172Z,98952.45
2018-10-06T06:24:22.741Z,98956.45
2018-10-06T06:26:53.271Z,98964.14
2018-10-06T06:29:23.756Z,98960.30
2018-10-06T06:34:38.691Z,98965.69
2018-10-06T06:37:45.236Z,98967.89
2018-10-06T06:40:15.880Z,98966.59
2018-10-06T06:42:46.539Z,98966.39
2018-10-06T06:45:16.994Z,98974.08
2018-10-06T06:47:47.693Z,98964.91
2018-10-06T06:50:18.723Z,98972.06
2018-10-06T06:52:50.805Z,98966.92
2018-10-06T06:55:21.469Z,98970.30
2018-10-06T06:57:51.947Z,98975.34
2018-10-06T07:00:22.534Z,98964.75
2018-10-06T07:02:59.706Z,98965.70
2018-10-06T07:05:30.335Z,98953.98
2018-10-06T07:08:00.723Z,98973.34
2018-10-06T07:10:31.366Z,98982.06
2018-10-06T07:13:01.931Z,98978.91
2018-10-06T07:15:32.507Z,98980.04
2018-10-06T07:18:03.033Z,98983.75
2018-10-06T07:20:33.598Z,98985.43
2018-10-06T07:23:04.121Z,98988.48
2018-10-06T07:25:34.537Z,98993.98
2018-10-06T07:28:05.579Z,98976.30
2018-10-06T07:30:36.057Z,98984.44
2018-10-06T07:33:06.641Z,98976.12
2018-10-06T07:35:37.177Z,98982.58
2018-10-06T07:38:07.694Z,98984.75
2018-10-06T07:40:38.260Z,98978.28
2018-10-06T07:43:08.969Z,98986.25
2018-10-06T07:45:40.088Z,98986.68
2018-10-06T07:48:10.536Z,98992.83
2018-10-06T07:50:41.068Z,98990.21
2018-10-06T07:53:11.868Z,98982.42
2018-10-06T07:55:42.262Z,98986.39
2018-10-06T07:58:12.864Z,98976.96
2018-10-06T08:00:43.410Z,98975.67
2018-10-06T08:03:14.123Z,98978.81
2018-10-06T08:05:49.948Z,98979.66
2018-10-06T08:08:20.535Z,98981.88
2018-10-06T08:10:51.029Z,98977.72
2018-10-06T08:13:21.563Z,98984.95
2018-10-06T08:15:52.276Z,98980.58
2018-10-06T08:18:22.817Z,98982.98
2018-10-06T08:20:53.995Z,98982.59
2018-10-06T08:23:26.358Z,98982.84
2018-10-06T08:25:56.815Z,98983.66
2018-10-06T08:28:27.450Z,98986.38
2018-10-06T08:30:58.637Z,98977.58
2018-10-06T08:33:29.288Z,98977.43
2018-10-06T08:35:59.893Z,98981.04
2018-10-06T08:38:30.345Z,98970.79
2018-10-06T08:41:00.831Z,98977.77
2018-10-06T08:43:31.462Z,98968.94
2018-10-06T08:46:02.105Z,98970.39
2018-10-06T08:48:32.665Z,98967.71
2018-10-06T08:51:04.830Z,98973.35
2018-10-06T08:53:35.323Z,98969.97
2018-10-06T08:56:05.835Z,98971.22
2018-10-06T08:58:36.384Z,98974.20
2018-10-06T09:01:06.411Z,98976.39
2018-10-06T09:03:36.987Z,98970.75
2018-10-06T09:06:07.460Z,98967.36
2018-10-06T09:08:38.105Z,98964.27
2018-10-06T09:11:11.057Z,98961.55
2018-10-06T09:13:41.587Z,98957.36
2018-10-06T09:16:12.274Z,98964.75
2018-10-06T09:18:43.576Z,98967.40
2018-10-06T09:21:14.915Z,98960.45
2018-10-06T09:23:55.947Z,98954.98
2018-10-06T09:26:26.413Z,98953.67
2018-10-06T09:28:56.901Z,98953.25
2018-10-06T09:31:27.436Z,98949.63
2018-10-06T09:33:58.113Z,98948.05
2018-10-06T09:36:28.533Z,98935.44
2018-10-06T09:38:59.564Z,98930.47
2018-10-06T09:41:30.162Z,98945.07
2018-10-06T09:44:00.690Z,98932.77
2018-10-06T09:46:31.231Z,98921.00
2018-10-06T09:49:02.586Z,98918.05
2018-10-06T09:51:33.070Z,98918.84
2018-10-06T09:54:03.576Z,98918.09
2018-10-06T09:56:37.679Z,98918.69
2018-10-06T09:59:08.765Z,98915.48
2018-10-06T10:02:16.705Z,98919.33
2018-10-06T10:04:47.306Z,98908.39
2018-10-06T10:07:17.780Z,98909.95
2018-10-06T10:09:52.521Z,98904.00
2018-10-06T10:12:23.022Z,98896.62
2018-10-06T10:14:53.630Z,98894.30
2018-10-06T10:17:24.188Z,98895.71
2018-10-06T10:19:54.780Z,98886.52
2018-10-06T10:22:25.480Z,98883.74
2018-10-06T10:24:56.242Z,98889.27
2018-10-06T10:27:26.757Z,98877.38
2018-10-06T10:29:57.280Z,98873.08
2018-10-06T10:32:27.854Z,98866.44
2018-10-06T10:34:59.407Z,98865.79
2018-10-06T10:37:30.012Z,98862.12
2018-10-06T10:40:01.946Z,98868.70
2018-10-06T10:42:32.522Z,98860.70
2018-10-06T10:45:03.123Z,98859.69
2018-10-06T10:47:33.668Z,98853.83
2018-10-06T10:50:04.250Z,98852.89
2018-10-06T10:52:34.836Z,98841.80
2018-10-06T10:55:07.510Z,98842.97
2018-10-06T10:57:38.026Z,98834.39
2018-10-06T11:00:08.930Z,98831.88
2018-10-06T11:02:39.759Z,98835.25
2018-10-06T11:05:10.554Z,98839.06
2018-10-06T11:07:40.994Z,98834.73
2018-10-06T11:10:11.647Z,98827.16
2018-10-06T11:12:42.080Z,98823.49
2018-10-06T11:15:12.615Z,98820.52
2018-10-06T11:17:43.078Z,98828.13
2018-10-06T11:20:13.572Z,98822.41
2018-10-06T11:22:44.713Z,98830.09
2018-10-06T11:25:28.811Z,98823.08
2018-10-06T11:27:59.360Z,98822.60
2018-10-06T11:30:29.778Z,98819.52
2018-10-06T11:33:00.379Z,98811.44
2018-10-06T11:35:37.028Z,98802.77
2018-10-06T11:38:07.764Z,98761.61
2018-10-06T11:40:39.153Z,98809.09
2018-10-06T11:43:09.636Z,98803.68
2018-10-06T11:45:41.377Z,98800.73
2018-10-06T11:58:42.036Z,98784.51
2018-10-06T12:02:48.004Z,98790.27
2018-10-06T12:05:18.318Z,98783.45
2018-10-06T12:07:52.871Z,98786.14
2018-10-06T12:10:23.342Z,98774.28
2018-10-06T12:12:54.883Z,98779.73
2018-10-06T12:15:25.408Z,98782.06
2018-10-06T12:17:55.855Z,98782.81
2018-10-06T12:20:27.144Z,98775.08
2018-10-06T12:22:57.995Z,98774.95
2018-10-06T12:25:28.421Z,98763.27
2018-10-06T12:28:00.773Z,98771.74
2018-10-06T12:33:13.261Z,98767.84
2018-10-06T12:35:43.783Z,98768.47
2018-10-06T12:38:14.328Z,98755.47
2018-10-06T12:40:44.890Z,98754.76
2018-10-06T12:43:19.572Z,98756.00
2018-10-06T12:45:50.024Z,98754.11
2018-10-06T12:48:26.437Z,98746.04
2018-10-06T12:51:02.153Z,98748.86
2018-10-06T12:53:33.309Z,98739.09
2018-10-06T12:56:03.891Z,98736.50
2018-10-06T12:58:35.418Z,98737.48
2018-10-06T13:01:05.990Z,98730.98
2018-10-06T13:03:37.420Z,98736.88
2018-10-06T13:06:08.552Z,98724.18
2018-10-06T13:08:39.086Z,98722.70
2018-10-06T13:11:09.771Z,98715.60
2018-10-06T13:13:40.258Z,98716.84
2018-10-06T13:16:11.124Z,98717.66
2018-10-06T13:18:42.610Z,98705.79
2018-10-06T13:21:13.128Z,98701.23
2018-10-06T13:23:43.991Z,98704.00
2018-10-06T13:26:15.688Z,98696.38
2018-10-06T13:28:47.304Z,98685.11
2018-10-06T13:31:17.886Z,98697.64
2018-10-06T14:05:13.485Z,98649.63
2018-10-06T14:07:44.591Z,98652.46
2018-10-06T14:10:16.897Z,98649.86
2018-10-06T14:18:03.100Z,98647.06
2018-10-06T14:33:11.739Z,98637.06
2018-10-06T14:35:42.958Z,98636.70
2018-10-06T14:38:13.446Z,98630.47
2018-10-06T14:40:46.117Z,98623.45
2018-10-06T14:43:16.615Z,98614.06
2018-10-06T14:45:47.167Z,98616.67
2018-10-06T14:48:17.656Z,98615.78
2018-10-06T14:51:06.981Z,98622.56
2018-10-06T14:53:37.405Z,98619.76
2018-10-06T14:56:07.872Z,98613.55
2018-10-06T14:58:38.370Z,98615.85
2018-10-06T15:01:08.876Z,98602.64
2018-10-06T15:03:39.476Z,98614.90
2018-10-06T15:06:10.027Z,98613.69
2018-10-06T15:08:40.485Z,98607.09
2018-10-06T15:11:11.180Z,98607.37
2018-10-06T15:13:48.327Z,98606.48
2018-10-06T15:16:18.806Z,98602.90
2018-10-06T15:18:54.054Z,98596.83
2018-10-06T15:21:25.367Z,98598.19
2018-10-06T15:24:00.196Z,98597.82
2018-10-06T15:26:30.737Z,98599.09
2018-10-06T15:29:01.248Z,98598.02
2018-10-06T15:31:31.861Z,98589.66
2018-10-06T15:34:02.401Z,98591.37
2018-10-06T15:36:33.035Z,98588.50
2018-10-06T15:41:55.367Z,98583.64
2018-10-06T15:44:25.906Z,98575.21
2018-10-06T15:46:56.393Z,98579.69
2018-10-06T15:49:26.871Z,98580.42
2018-10-06T15:51:57.577Z,98574.09
2018-10-06T15:54:28.964Z,98573.94
2018-10-06T15:56:59.442Z,98574.14
2018-10-06T15:59:30.012Z,98569.66
2018-10-06T16:02:00.524Z,98572.28
2018-10-06T16:04:31.033Z,98567.13
2018-10-06T16:07:01.614Z,98567.63
2018-10-06T16:09:32.161Z,98566.75
2018-10-06T16:12:02.879Z,98561.98
2018-10-06T16:14:33.361Z,98564.60
2018-10-06T16:17:03.890Z,98566.16
2018-10-06T16:19:34.385Z,98564.48
2018-10-06T16:22:04.947Z,98561.88
2018-10-06T16:24:35.398Z,98558.76
2018-10-06T16:27:05.949Z,98557.46
2018-10-06T16:29:36.444Z,98558.59
2018-10-06T16:32:08.465Z,98553.87
2018-10-06T16:34:39.014Z,98545.73
2018-10-06T16:37:09.508Z,98541.55
2018-10-06T16:39:40.446Z,98546.00
2018-10-06T16:42:10.924Z,98541.94
2018-10-06T16:44:41.470Z,98539.16
2018-10-06T16:47:11.910Z,98539.56
2018-10-06T16:49:42.382Z,98540.09
2018-10-06T16:52:13.113Z,98541.88
2018-10-06T16:54:43.737Z,98534.60
2018-10-06T16:57:14.262Z,98538.77
2018-10-06T16:59:45.108Z,98535.20
2018-10-06T17:02:15.627Z,98533.46
2018-10-06T17:04:46.150Z,98536.16
2018-10-06T17:07:16.620Z,98527.13
2018-10-06T17:09:47.107Z,98523.84
2018-10-06T17:12:17.577Z,98535.47
2018-10-06T17:15:02.535Z,98530.91
2018-10-06T17:17:33.063Z,98527.79
2018-10-06T17:20:03.493Z,98526.40
2018-10-06T17:22:33.994Z,98521.58
2018-10-06T17:25:04.598Z,98525.83
2018-10-06T17:27:35.101Z,98525.81
2018-10-06T17:30:06.660Z,98521.97
2018-10-06T17:32:44.412Z,98523.20
2018-10-06T17:35:15.091Z,98521.06
2018-10-06T17:37:45.479Z,98517.72
2018-10-06T17:40:16.079Z,98517.67
2018-10-06T17:42:46.729Z,98516.19
2018-10-06T17:45:17.200Z,98520.09
2018-10-06T17:47:47.757Z,98519.17
2018-10-06T17:50:18.362Z,98527.87
2018-10-06T17:52:49.150Z,98512.12
2018-10-06T17:55:22.189Z,98515.07
2018-10-06T17:57:52.687Z,98516.86
2018-10-06T18:00:24.730Z,98519.47
2018-10-06T18:02:55.250Z,98517.28
2018-10-06T18:05:25.670Z,98520.41
2018-10-06T18:07:56.096Z,98517.08
2018-10-06T18:10:26.550Z,98524.37
2018-10-06T18:13:22.316Z,98528.05
2018-10-06T18:15:52.799Z,98523.02
2018-10-06T18:18:23.419Z,98517.28
2018-10-06T18:20:53.953Z,98514.53
2018-10-06T18:27:08.798Z,98507.75
2018-10-06T18:29:40.848Z,98510.62
2018-10-06T18:32:11.283Z,98510.51
2018-10-06T18:34:41.756Z,98500.09
2018-10-06T18:37:12.494Z,98502.70
2018-10-06T18:39:46.232Z,98502.39
2018-10-06T18:42:17.792Z,98503.20
2018-10-06T18:44:48.533Z,98497.92
2018-10-06T18:47:19.005Z,98497.92
2018-10-06T18:49:49.477Z,98497.58
2018-10-06T18:52:19.852Z,98496.77
2018-10-06T18:54:50.440Z,98498.03
2018-10-06T18:57:20.889Z,98501.06
2018-10-06T18:59:51.429Z,98498.77
2018-10-06T19:02:23.471Z,98497.00
2018-10-06T19:04:54.145Z,98493.78
2018-10-06T19:07:24.709Z,98500.64
2018-10-06T19:09:55.624Z,98491.18
2018-10-06T19:12:26.119Z,98497.27
2018-10-06T19:14:56.627Z,98490.49
2018-10-06T19:17:27.068Z,98487.05
2018-10-06T19:19:57.713Z,98485.44
2018-10-06T19:22:28.179Z,98480.04
2018-10-06T19:25:00.505Z,98478.09
2018-10-06T19:27:30.999Z,98480.42
2018-10-06T19:30:01.467Z,98477.44
2018-10-06T19:32:32.029Z,98474.61
2018-10-06T19:35:03.539Z,98470.13
2018-10-06T19:37:34.014Z,98476.91
2018-10-06T19:40:04.681Z,98470.40
2018-10-06T19:42:35.958Z,98475.03
2018-10-06T19:45:06.582Z,98472.55
2018-10-06T19:47:37.145Z,98467.11
2018-10-06T19:50:07.546Z,98474.19
2018-10-06T19:52:38.171Z,98473.46
2018-10-06T19:55:08.735Z,98470.09
2018-10-06T19:57:39.219Z,98475.59
2018-10-06T20:00:10.789Z,98469.39
2018-10-06T20:02:41.275Z,98462.27
2018-10-06T20:05:12.057Z,98465.63
2018-10-06T20:07:42.610Z,98467.44
2018-10-06T20:10:15.330Z,98467.63
2018-10-06T20:12:46.039Z,98463.65
2018-10-06T20:15:16.510Z,98456.98
2018-10-06T20:17:46.900Z,98463.73
2018-10-06T20:20:17.392Z,98460.91
2018-10-06T20:22:47.882Z,98462.05
2018-10-06T20:25:22.505Z,98458.30
2018-10-06T20:27:52.988Z,98452.17
2018-10-06T20:30:23.511Z,98452.17
2018-10-06T20:32:54.011Z,98447.13
2018-10-06T20:35:24.464Z,98445.79
2018-10-06T20:37:54.896Z,98445.25
2018-10-06T20:40:25.396Z,98440.73
2018-10-06T20:42:55.877Z,98446.29
2018-10-06T20:45:26.549Z,98437.72
2018-10-06T20:47:57.029Z,98434.73
2018-10-06T20:50:27.760Z,98427.30
2018-10-06T20:52:58.320Z,98428.91
2018-10-06T20:55:28.739Z,98427.45
2018-10-06T20:57:59.334Z,98420.84
2018-10-06T21:00:29.821Z,98411.55
2018-10-06T21:03:00.385Z,98414.53
2018-10-06T21:05:31.232Z,98409.59
2018-10-06T21:08:01.717Z,98409.59
2018-10-06T21:10:32.350Z,98403.41
2018-10-06T21:13:02.914Z,98403.73
2018-10-06T21:15:33.580Z,98399.34
2018-10-06T21:18:04.108Z,98386.98
2018-10-06T21:20:34.602Z,98387.59
2018-10-06T21:23:05.108Z,98388.92
2018-10-06T21:25:35.607Z,98393.62
2018-10-06T21:28:06.123Z,98388.52
2018-10-06T21:30:36.756Z,98386.96
2018-10-06T21:33:07.184Z,98377.73
2018-10-06T21:35:37.788Z,98381.06
2018-10-06T21:38:08.369Z,98372.68
2018-10-06T21:40:38.945Z,98373.57
2018-10-06T21:43:24.450Z,98373.26
2018-10-06T21:45:55.202Z,98366.86
2018-10-06T21:48:25.636Z,98356.72
2018-10-06T21:50:56.553Z,98357.33
2018-10-06T21:56:01.922Z,98356.02
2018-10-06T21:58:32.349Z,98351.52
2018-10-06T22:01:07.743Z,98361.55
2018-10-06T22:03:38.579Z,98347.49
2018-10-06T22:06:10.392Z,98353.83
2018-10-06T22:08:42.095Z,98356.55
2018-10-06T22:11:12.669Z,98353.63
2018-10-06T22:13:43.128Z,98353.30
2018-10-06T22:16:13.647Z,98356.55
2018-10-06T22:18:44.278Z,98359.03
2018-10-06T22:21:14.771Z,98358.71
2018-10-06T22:23:45.311Z,98355.59
2018-10-06T22:26:16.026Z,98354.43
2018-10-06T22:28:46.619Z,98357.27
2018-10-06T22:31:17.177Z,98351.83
2018-10-06T22:33:47.724Z,98349.28
2018-10-06T22:36:18.235Z,98348.33
2018-10-06T22:38:48.805Z,98344.52
2018-10-06T22:41:19.391Z,98350.67
2018-10-06T22:43:50.014Z,98344.68
2018-10-06T22:46:20.534Z,98353.65
2018-10-06T22:48:51.021Z,98350.09
2018-10-06T22:51:21.632Z,98345.64
2018-10-06T22:53:52.083Z,98342.58
2018-10-06T22:56:22.548Z,98348.59
2018-10-06T22:58:52.985Z,98349.89
2018-10-06T23:01:23.380Z,98344.02
2018-10-06T23:03:53.900Z,98339.54
2018-10-06T23:06:24.369Z,98335.58
2018-10-06T23:08:54.803Z,98334.05
2018-10-06T23:11:25.329Z,98328.46
2018-10-06T23:13:55.893Z,98327.95
2018-10-06T23:16:26.333Z,98326.47
2018-10-06T23:18:56.973Z,98321.64
2018-10-06T23:21:27.464Z,98315.48
2018-10-06T23:23:58.317Z,98317.56
2018-10-06T23:26:29.040Z,98320.77
2018-10-06T23:28:59.424Z,98317.84
2018-10-06T23:31:30.122Z,98314.80
2018-10-06T23:34:00.687Z,98313.55
2018-10-06T23:36:31.144Z,98306.20
2018-10-06T23:39:02.252Z,98301.46
2018-10-06T23:41:32.730Z,98300.39
2018-10-06T23:44:03.230Z,98300.92
2018-10-06T23:46:33.956Z,98293.12
2018-10-06T23:49:04.521Z,98299.02
2018-10-06T23:51:34.909Z,98298.20
2018-10-06T23:54:06.537Z,98293.93
2018-10-06T23:56:37.484Z,98289.66
2018-10-06T23:59:08.072Z,98291.20
